sensor_id;sensor_type;location;lat;lon;timestamp;P1;durP1;ratioP1;P2;durP2;ratioP2
64903;SDS011;51401;48.882;12.598;2023-08-21T00:01:55;11.25;;;9.40;;
64903;SDS011;51401;48.882;12.598;2023-08-21T00:04:21;12.60;;;9.52;;
64903;SDS011;51401;48.882;12.598;2023-08-21T00:06:46;10.02;;;9.02;;
64903;SDS011;51401;48.882;12.598;2023-08-21T00:09:11;12.00;;;9.70;;
64903;SDS011;51401;48.882;12.598;2023-08-21T00:11:36;10.87;;;9.73;;
64903;SDS011;51401;48.882;12.598;2023-08-21T00:14:02;11.00;;;9.45;;
64903;SDS011;51401;48.882;12.598;2023-08-21T00:16:27;11.10;;;9.48;;
64903;SDS011;51401;48.882;12.598;2023-08-21T00:18:53;10.82;;;9.73;;
64903;SDS011;51401;48.882;12.598;2023-08-21T00:21:19;12.07;;;9.73;;
64903;SDS011;51401;48.882;12.598;2023-08-21T00:23:45;10.38;;;9.38;;
64903;SDS011;51401;48.882;12.598;2023-08-21T00:26:11;11.02;;;9.85;;
64903;SDS011;51401;48.882;12.598;2023-08-21T00:28:37;9.93;;;8.93;;
64903;SDS011;51401;48.882;12.598;2023-08-21T00:31:03;10.93;;;8.52;;
64903;SDS011;51401;48.882;12.598;2023-08-21T00:33:30;10.35;;;8.93;;
64903;SDS011;51401;48.882;12.598;2023-08-21T00:35:56;11.80;;;8.90;;
64903;SDS011;51401;48.882;12.598;2023-08-21T00:38:22;10.68;;;9.57;;
64903;SDS011;51401;48.882;12.598;2023-08-21T00:40:48;11.75;;;9.20;;
64903;SDS011;51401;48.882;12.598;2023-08-21T00:43:14;10.65;;;9.32;;
64903;SDS011;51401;48.882;12.598;2023-08-21T00:45:40;11.00;;;8.88;;
64903;SDS011;51401;48.882;12.598;2023-08-21T00:48:07;12.82;;;9.77;;
64903;SDS011;51401;48.882;12.598;2023-08-21T00:50:33;10.43;;;9.27;;
64903;SDS011;51401;48.882;12.598;2023-08-21T00:52:59;9.55;;;8.65;;
64903;SDS011;51401;48.882;12.598;2023-08-21T00:55:24;10.75;;;9.65;;
64903;SDS011;51401;48.882;12.598;2023-08-21T00:57:49;10.02;;;8.98;;
64903;SDS011;51401;48.882;12.598;2023-08-21T01:00:15;10.75;;;9.32;;
64903;SDS011;51401;48.882;12.598;2023-08-21T01:02:40;10.65;;;9.30;;
64903;SDS011;51401;48.882;12.598;2023-08-21T01:05:07;11.98;;;9.43;;
64903;SDS011;51401;48.882;12.598;2023-08-21T01:07:32;12.48;;;9.55;;
64903;SDS011;51401;48.882;12.598;2023-08-21T01:10:07;10.32;;;9.18;;
64903;SDS011;51401;48.882;12.598;2023-08-21T01:15:21;9.98;;;8.93;;
64903;SDS011;51401;48.882;12.598;2023-08-21T01:17:47;10.70;;;8.80;;
64903;SDS011;51401;48.882;12.598;2023-08-21T01:20:14;12.93;;;9.60;;
64903;SDS011;51401;48.882;12.598;2023-08-21T01:22:40;11.00;;;8.88;;
64903;SDS011;51401;48.882;12.598;2023-08-21T01:25:10;11.40;;;9.85;;
64903;SDS011;51401;48.882;12.598;2023-08-21T01:27:36;11.95;;;10.05;;
64903;SDS011;51401;48.882;12.598;2023-08-21T01:30:03;11.02;;;9.05;;
64903;SDS011;51401;48.882;12.598;2023-08-21T01:32:43;11.27;;;9.25;;
64903;SDS011;51401;48.882;12.598;2023-08-21T01:35:15;11.07;;;9.60;;
64903;SDS011;51401;48.882;12.598;2023-08-21T01:37:40;10.82;;;8.98;;
64903;SDS011;51401;48.882;12.598;2023-08-21T01:40:06;9.80;;;8.80;;
64903;SDS011;51401;48.882;12.598;2023-08-21T01:42:33;12.45;;;9.73;;
64903;SDS011;51401;48.882;12.598;2023-08-21T01:44:58;11.50;;;9.43;;
64903;SDS011;51401;48.882;12.598;2023-08-21T01:47:24;11.38;;;9.75;;
64903;SDS011;51401;48.882;12.598;2023-08-21T01:49:49;10.70;;;9.40;;
64903;SDS011;51401;48.882;12.598;2023-08-21T01:52:17;11.02;;;9.20;;
64903;SDS011;51401;48.882;12.598;2023-08-21T01:54:43;10.23;;;9.23;;
64903;SDS011;51401;48.882;12.598;2023-08-21T01:57:09;11.68;;;9.45;;
64903;SDS011;51401;48.882;12.598;2023-08-21T01:59:34;9.95;;;8.95;;
64903;SDS011;51401;48.882;12.598;2023-08-21T02:01:59;10.95;;;9.30;;
64903;SDS011;51401;48.882;12.598;2023-08-21T02:04:25;9.25;;;8.35;;
64903;SDS011;51401;48.882;12.598;2023-08-21T02:06:50;10.70;;;9.30;;
64903;SDS011;51401;48.882;12.598;2023-08-21T02:09:15;12.43;;;9.57;;
64903;SDS011;51401;48.882;12.598;2023-08-21T02:11:40;10.03;;;8.87;;
64903;SDS011;51401;48.882;12.598;2023-08-21T02:14:06;10.47;;;9.37;;
64903;SDS011;51401;48.882;12.598;2023-08-21T02:16:31;11.32;;;9.30;;
64903;SDS011;51401;48.882;12.598;2023-08-21T02:18:57;11.82;;;9.70;;
64903;SDS011;51401;48.882;12.598;2023-08-21T02:21:22;11.13;;;9.98;;
64903;SDS011;51401;48.882;12.598;2023-08-21T02:23:48;9.68;;;8.75;;
64903;SDS011;51401;48.882;12.598;2023-08-21T02:26:13;10.65;;;9.05;;
64903;SDS011;51401;48.882;12.598;2023-08-21T02:28:39;12.18;;;9.38;;
64903;SDS011;51401;48.882;12.598;2023-08-21T02:31:04;11.70;;;9.38;;
64903;SDS011;51401;48.882;12.598;2023-08-21T02:33:30;9.75;;;8.75;;
64903;SDS011;51401;48.882;12.598;2023-08-21T02:35:55;11.43;;;9.43;;
64903;SDS011;51401;48.882;12.598;2023-08-21T02:38:21;10.27;;;9.25;;
64903;SDS011;51401;48.882;12.598;2023-08-21T02:40:46;11.27;;;8.85;;
64903;SDS011;51401;48.882;12.598;2023-08-21T02:43:12;9.50;;;8.48;;
64903;SDS011;51401;48.882;12.598;2023-08-21T02:45:38;11.02;;;9.57;;
64903;SDS011;51401;48.882;12.598;2023-08-21T02:48:03;11.83;;;9.97;;
64903;SDS011;51401;48.882;12.598;2023-08-21T02:50:29;10.77;;;9.20;;
64903;SDS011;51401;48.882;12.598;2023-08-21T02:52:54;12.33;;;9.50;;
64903;SDS011;51401;48.882;12.598;2023-08-21T02:55:19;11.32;;;9.75;;
64903;SDS011;51401;48.882;12.598;2023-08-21T02:57:45;10.77;;;9.73;;
64903;SDS011;51401;48.882;12.598;2023-08-21T03:00:11;10.38;;;9.27;;
64903;SDS011;51401;48.882;12.598;2023-08-21T03:02:37;11.55;;;9.32;;
64903;SDS011;51401;48.882;12.598;2023-08-21T03:05:03;12.43;;;9.60;;
64903;SDS011;51401;48.882;12.598;2023-08-21T03:07:32;10.27;;;9.18;;
64903;SDS011;51401;48.882;12.598;2023-08-21T03:09:57;10.30;;;9.18;;
64903;SDS011;51401;48.882;12.598;2023-08-21T03:12:22;11.27;;;9.10;;
64903;SDS011;51401;48.882;12.598;2023-08-21T03:14:47;12.53;;;9.50;;
64903;SDS011;51401;48.882;12.598;2023-08-21T03:17:13;10.73;;;9.55;;
64903;SDS011;51401;48.882;12.598;2023-08-21T03:19:38;10.52;;;9.43;;
64903;SDS011;51401;48.882;12.598;2023-08-21T03:22:03;11.30;;;9.20;;
64903;SDS011;51401;48.882;12.598;2023-08-21T03:24:29;11.57;;;9.85;;
64903;SDS011;51401;48.882;12.598;2023-08-21T03:26:54;11.20;;;8.60;;
64903;SDS011;51401;48.882;12.598;2023-08-21T03:29:20;11.10;;;9.07;;
64903;SDS011;51401;48.882;12.598;2023-08-21T03:31:49;13.37;;;10.93;;
64903;SDS011;51401;48.882;12.598;2023-08-21T03:34:14;11.43;;;9.53;;
64903;SDS011;51401;48.882;12.598;2023-08-21T03:36:40;10.75;;;9.43;;
64903;SDS011;51401;48.882;12.598;2023-08-21T03:39:05;11.65;;;9.60;;
64903;SDS011;51401;48.882;12.598;2023-08-21T03:41:30;10.50;;;8.90;;
64903;SDS011;51401;48.882;12.598;2023-08-21T03:43:56;10.88;;;9.50;;
64903;SDS011;51401;48.882;12.598;2023-08-21T03:46:21;10.65;;;9.55;;
64903;SDS011;51401;48.882;12.598;2023-08-21T03:48:46;12.40;;;10.07;;
64903;SDS011;51401;48.882;12.598;2023-08-21T03:51:12;10.18;;;9.00;;
64903;SDS011;51401;48.882;12.598;2023-08-21T03:53:37;10.88;;;9.20;;
64903;SDS011;51401;48.882;12.598;2023-08-21T03:56:03;12.15;;;9.70;;
64903;SDS011;51401;48.882;12.598;2023-08-21T03:58:28;15.02;;;10.02;;
64903;SDS011;51401;48.882;12.598;2023-08-21T04:00:53;10.40;;;9.30;;
64903;SDS011;51401;48.882;12.598;2023-08-21T04:03:19;11.32;;;9.40;;
64903;SDS011;51401;48.882;12.598;2023-08-21T04:05:44;11.85;;;10.57;;
64903;SDS011;51401;48.882;12.598;2023-08-21T04:08:10;10.23;;;8.98;;
64903;SDS011;51401;48.882;12.598;2023-08-21T04:10:35;11.30;;;9.13;;
64903;SDS011;51401;48.882;12.598;2023-08-21T04:13:00;10.13;;;9.13;;
64903;SDS011;51401;48.882;12.598;2023-08-21T04:15:26;13.05;;;9.43;;
64903;SDS011;51401;48.882;12.598;2023-08-21T04:17:51;10.73;;;9.25;;
64903;SDS011;51401;48.882;12.598;2023-08-21T04:20:19;11.95;;;10.57;;
64903;SDS011;51401;48.882;12.598;2023-08-21T04:22:46;11.27;;;9.48;;
64903;SDS011;51401;48.882;12.598;2023-08-21T04:25:12;13.77;;;9.88;;
64903;SDS011;51401;48.882;12.598;2023-08-21T04:27:37;10.80;;;9.70;;
64903;SDS011;51401;48.882;12.598;2023-08-21T04:30:02;10.85;;;9.73;;
64903;SDS011;51401;48.882;12.598;2023-08-21T04:32:28;11.02;;;9.88;;
64903;SDS011;51401;48.882;12.598;2023-08-21T04:34:54;10.60;;;9.57;;
64903;SDS011;51401;48.882;12.598;2023-08-21T04:37:19;13.43;;;10.40;;
64903;SDS011;51401;48.882;12.598;2023-08-21T04:39:44;10.53;;;9.13;;
64903;SDS011;51401;48.882;12.598;2023-08-21T04:42:10;10.98;;;9.00;;
64903;SDS011;51401;48.882;12.598;2023-08-21T04:44:36;12.73;;;9.83;;
64903;SDS011;51401;48.882;12.598;2023-08-21T04:47:18;12.20;;;9.32;;
64903;SDS011;51401;48.882;12.598;2023-08-21T04:49:45;10.23;;;9.18;;
64903;SDS011;51401;48.882;12.598;2023-08-21T04:52:10;16.90;;;10.30;;
64903;SDS011;51401;48.882;12.598;2023-08-21T04:54:36;10.45;;;9.40;;
64903;SDS011;51401;48.882;12.598;2023-08-21T04:57:01;10.15;;;9.13;;
64903;SDS011;51401;48.882;12.598;2023-08-21T04:59:26;10.52;;;9.43;;
64903;SDS011;51401;48.882;12.598;2023-08-21T05:01:52;11.32;;;9.30;;
64903;SDS011;51401;48.882;12.598;2023-08-21T05:04:17;10.77;;;9.67;;
64903;SDS011;51401;48.882;12.598;2023-08-21T05:06:42;12.53;;;10.50;;
64903;SDS011;51401;48.882;12.598;2023-08-21T05:09:08;13.67;;;10.07;;
64903;SDS011;51401;48.882;12.598;2023-08-21T05:11:33;11.55;;;10.35;;
64903;SDS011;51401;48.882;12.598;2023-08-21T05:13:58;11.80;;;9.50;;
64903;SDS011;51401;48.882;12.598;2023-08-21T05:16:24;11.15;;;9.85;;
64903;SDS011;51401;48.882;12.598;2023-08-21T05:18:49;11.75;;;9.82;;
64903;SDS011;51401;48.882;12.598;2023-08-21T05:21:14;12.33;;;9.73;;
64903;SDS011;51401;48.882;12.598;2023-08-21T05:23:40;11.55;;;9.63;;
64903;SDS011;51401;48.882;12.598;2023-08-21T05:26:05;11.63;;;10.43;;
64903;SDS011;51401;48.882;12.598;2023-08-21T05:28:30;12.05;;;9.75;;
64903;SDS011;51401;48.882;12.598;2023-08-21T05:30:56;13.70;;;10.20;;
64903;SDS011;51401;48.882;12.598;2023-08-21T05:33:22;11.32;;;9.88;;
64903;SDS011;51401;48.882;12.598;2023-08-21T05:35:47;11.00;;;9.30;;
64903;SDS011;51401;48.882;12.598;2023-08-21T05:38:12;13.40;;;10.57;;
64903;SDS011;51401;48.882;12.598;2023-08-21T05:40:39;12.10;;;10.10;;
64903;SDS011;51401;48.882;12.598;2023-08-21T05:43:06;11.27;;;9.98;;
64903;SDS011;51401;48.882;12.598;2023-08-21T05:45:31;13.47;;;10.30;;
64903;SDS011;51401;48.882;12.598;2023-08-21T05:47:57;14.73;;;11.27;;
64903;SDS011;51401;48.882;12.598;2023-08-21T05:50:22;17.13;;;11.40;;
64903;SDS011;51401;48.882;12.598;2023-08-21T05:52:47;12.98;;;10.05;;
64903;SDS011;51401;48.882;12.598;2023-08-21T05:55:13;11.63;;;10.43;;
64903;SDS011;51401;48.882;12.598;2023-08-21T05:57:39;10.65;;;9.57;;
64903;SDS011;51401;48.882;12.598;2023-08-21T06:00:04;11.80;;;10.05;;
64903;SDS011;51401;48.882;12.598;2023-08-21T06:02:33;12.23;;;10.63;;
64903;SDS011;51401;48.882;12.598;2023-08-21T06:04:58;10.48;;;9.32;;
64903;SDS011;51401;48.882;12.598;2023-08-21T06:07:23;10.63;;;9.48;;
64903;SDS011;51401;48.882;12.598;2023-08-21T06:09:49;13.70;;;9.98;;
64903;SDS011;51401;48.882;12.598;2023-08-21T06:12:15;12.10;;;10.77;;
64903;SDS011;51401;48.882;12.598;2023-08-21T06:14:40;10.90;;;9.80;;
64903;SDS011;51401;48.882;12.598;2023-08-21T06:17:05;10.10;;;9.23;;
64903;SDS011;51401;48.882;12.598;2023-08-21T06:19:31;11.25;;;9.45;;
64903;SDS011;51401;48.882;12.598;2023-08-21T06:21:56;11.07;;;10.07;;
64903;SDS011;51401;48.882;12.598;2023-08-21T06:24:22;10.82;;;9.73;;
64903;SDS011;51401;48.882;12.598;2023-08-21T06:26:48;11.48;;;10.23;;
64903;SDS011;51401;48.882;12.598;2023-08-21T06:29:14;12.38;;;9.43;;
64903;SDS011;51401;48.882;12.598;2023-08-21T06:31:39;9.77;;;8.88;;
64903;SDS011;51401;48.882;12.598;2023-08-21T06:34:05;12.07;;;10.00;;
64903;SDS011;51401;48.882;12.598;2023-08-21T06:36:30;11.90;;;9.93;;
64903;SDS011;51401;48.882;12.598;2023-08-21T06:38:55;11.07;;;9.97;;
64903;SDS011;51401;48.882;12.598;2023-08-21T06:41:21;11.15;;;10.05;;
64903;SDS011;51401;48.882;12.598;2023-08-21T06:43:46;11.65;;;10.48;;
64903;SDS011;51401;48.882;12.598;2023-08-21T06:46:12;13.13;;;10.57;;
64903;SDS011;51401;48.882;12.598;2023-08-21T06:48:38;11.98;;;10.85;;
64903;SDS011;51401;48.882;12.598;2023-08-21T06:51:05;11.80;;;10.70;;
64903;SDS011;51401;48.882;12.598;2023-08-21T06:53:31;10.43;;;9.43;;
64903;SDS011;51401;48.882;12.598;2023-08-21T06:55:56;11.20;;;9.82;;
64903;SDS011;51401;48.882;12.598;2023-08-21T06:58:22;10.43;;;9.43;;
64903;SDS011;51401;48.882;12.598;2023-08-21T07:00:47;13.05;;;10.57;;
64903;SDS011;51401;48.882;12.598;2023-08-21T07:03:13;10.00;;;9.18;;
64903;SDS011;51401;48.882;12.598;2023-08-21T07:05:38;11.13;;;10.23;;
64903;SDS011;51401;48.882;12.598;2023-08-21T07:08:03;11.00;;;10.00;;
64903;SDS011;51401;48.882;12.598;2023-08-21T07:10:29;10.63;;;9.52;;
64903;SDS011;51401;48.882;12.598;2023-08-21T07:12:54;10.02;;;9.13;;
64903;SDS011;51401;48.882;12.598;2023-08-21T07:15:20;10.52;;;9.65;;
64903;SDS011;51401;48.882;12.598;2023-08-21T07:17:46;10.68;;;9.68;;
64903;SDS011;51401;48.882;12.598;2023-08-21T07:20:11;10.18;;;9.35;;
64903;SDS011;51401;48.882;12.598;2023-08-21T07:22:37;10.25;;;9.35;;
64903;SDS011;51401;48.882;12.598;2023-08-21T07:25:03;10.05;;;9.15;;
64903;SDS011;51401;48.882;12.598;2023-08-21T07:27:29;9.82;;;8.93;;
64903;SDS011;51401;48.882;12.598;2023-08-21T07:29:55;11.32;;;10.32;;
64903;SDS011;51401;48.882;12.598;2023-08-21T07:32:21;10.45;;;9.45;;
64903;SDS011;51401;48.882;12.598;2023-08-21T07:34:46;11.30;;;10.07;;
64903;SDS011;51401;48.882;12.598;2023-08-21T07:37:11;10.57;;;9.67;;
64903;SDS011;51401;48.882;12.598;2023-08-21T07:39:37;10.47;;;9.43;;
64903;SDS011;51401;48.882;12.598;2023-08-21T07:42:02;11.18;;;10.18;;
64903;SDS011;51401;48.882;12.598;2023-08-21T07:44:27;11.05;;;9.95;;
64903;SDS011;51401;48.882;12.598;2023-08-21T07:46:53;11.63;;;10.45;;
64903;SDS011;51401;48.882;12.598;2023-08-21T07:49:18;12.55;;;11.27;;
64903;SDS011;51401;48.882;12.598;2023-08-21T07:51:43;11.43;;;10.00;;
64903;SDS011;51401;48.882;12.598;2023-08-21T07:54:09;10.73;;;9.63;;
64903;SDS011;51401;48.882;12.598;2023-08-21T07:56:34;10.98;;;9.68;;
64903;SDS011;51401;48.882;12.598;2023-08-21T07:59:01;10.38;;;9.48;;
64903;SDS011;51401;48.882;12.598;2023-08-21T08:01:27;10.43;;;9.43;;
64903;SDS011;51401;48.882;12.598;2023-08-21T08:03:52;10.00;;;9.10;;
64903;SDS011;51401;48.882;12.598;2023-08-21T08:06:18;10.20;;;9.27;;
64903;SDS011;51401;48.882;12.598;2023-08-21T08:08:43;9.25;;;8.45;;
64903;SDS011;51401;48.882;12.598;2023-08-21T08:11:09;9.40;;;8.55;;
64903;SDS011;51401;48.882;12.598;2023-08-21T08:13:34;8.87;;;8.17;;
64903;SDS011;51401;48.882;12.598;2023-08-21T08:16:00;9.68;;;8.80;;
64903;SDS011;51401;48.882;12.598;2023-08-21T08:18:25;9.57;;;8.77;;
64903;SDS011;51401;48.882;12.598;2023-08-21T08:20:51;8.90;;;8.20;;
64903;SDS011;51401;48.882;12.598;2023-08-21T08:23:16;8.80;;;8.05;;
64903;SDS011;51401;48.882;12.598;2023-08-21T08:25:42;9.38;;;8.48;;
64903;SDS011;51401;48.882;12.598;2023-08-21T08:28:07;9.60;;;8.75;;
64903;SDS011;51401;48.882;12.598;2023-08-21T08:30:33;9.85;;;9.00;;
64903;SDS011;51401;48.882;12.598;2023-08-21T08:32:59;10.45;;;9.38;;
64903;SDS011;51401;48.882;12.598;2023-08-21T08:35:25;9.88;;;8.88;;
64903;SDS011;51401;48.882;12.598;2023-08-21T08:37:50;10.03;;;8.90;;
64903;SDS011;51401;48.882;12.598;2023-08-21T08:40:15;9.80;;;8.80;;
64903;SDS011;51401;48.882;12.598;2023-08-21T08:42:41;10.02;;;9.02;;
64903;SDS011;51401;48.882;12.598;2023-08-21T08:45:07;9.60;;;8.60;;
64903;SDS011;51401;48.882;12.598;2023-08-21T08:47:33;9.85;;;8.95;;
64903;SDS011;51401;48.882;12.598;2023-08-21T08:50:01;9.95;;;9.05;;
64903;SDS011;51401;48.882;12.598;2023-08-21T08:52:29;10.88;;;9.82;;
64903;SDS011;51401;48.882;12.598;2023-08-21T08:54:56;10.38;;;9.38;;
64903;SDS011;51401;48.882;12.598;2023-08-21T08:57:22;10.95;;;9.88;;
64903;SDS011;51401;48.882;12.598;2023-08-21T08:59:48;10.27;;;9.27;;
64903;SDS011;51401;48.882;12.598;2023-08-21T09:02:13;10.33;;;9.33;;
64903;SDS011;51401;48.882;12.598;2023-08-21T09:04:38;9.50;;;8.67;;
64903;SDS011;51401;48.882;12.598;2023-08-21T09:07:07;9.73;;;8.93;;
64903;SDS011;51401;48.882;12.598;2023-08-21T09:09:37;10.20;;;9.20;;
64903;SDS011;51401;48.882;12.598;2023-08-21T09:12:10;10.18;;;9.18;;
64903;SDS011;51401;48.882;12.598;2023-08-21T09:14:40;11.10;;;10.13;;
64903;SDS011;51401;48.882;12.598;2023-08-21T09:17:06;10.60;;;9.60;;
64903;SDS011;51401;48.882;12.598;2023-08-21T09:19:31;10.10;;;9.20;;
64903;SDS011;51401;48.882;12.598;2023-08-21T09:21:57;10.13;;;9.32;;
64903;SDS011;51401;48.882;12.598;2023-08-21T09:24:22;10.23;;;9.40;;
64903;SDS011;51401;48.882;12.598;2023-08-21T09:26:49;10.32;;;9.32;;
64903;SDS011;51401;48.882;12.598;2023-08-21T09:29:15;9.70;;;8.88;;
64903;SDS011;51401;48.882;12.598;2023-08-21T09:31:40;10.00;;;9.20;;
64903;SDS011;51401;48.882;12.598;2023-08-21T09:34:05;10.60;;;9.60;;
64903;SDS011;51401;48.882;12.598;2023-08-21T09:36:31;9.85;;;8.85;;
64903;SDS011;51401;48.882;12.598;2023-08-21T09:38:57;10.45;;;9.52;;
64903;SDS011;51401;48.882;12.598;2023-08-21T09:41:23;10.47;;;9.40;;
64903;SDS011;51401;48.882;12.598;2023-08-21T09:43:50;9.98;;;8.98;;
64903;SDS011;51401;48.882;12.598;2023-08-21T09:46:16;9.85;;;9.05;;
64903;SDS011;51401;48.882;12.598;2023-08-21T09:48:43;10.52;;;9.25;;
64903;SDS011;51401;48.882;12.598;2023-08-21T09:51:10;9.65;;;8.68;;
64903;SDS011;51401;48.882;12.598;2023-08-21T09:53:36;9.43;;;8.63;;
64903;SDS011;51401;48.882;12.598;2023-08-21T09:56:02;9.32;;;8.43;;
64903;SDS011;51401;48.882;12.598;2023-08-21T09:58:28;9.43;;;8.55;;
64903;SDS011;51401;48.882;12.598;2023-08-21T10:00:56;9.63;;;8.73;;
64903;SDS011;51401;48.882;12.598;2023-08-21T10:03:22;9.93;;;9.02;;
64903;SDS011;51401;48.882;12.598;2023-08-21T10:05:48;10.40;;;9.52;;
64903;SDS011;51401;48.882;12.598;2023-08-21T10:08:15;9.65;;;8.75;;
64903;SDS011;51401;48.882;12.598;2023-08-21T10:10:42;9.98;;;9.07;;
64903;SDS011;51401;48.882;12.598;2023-08-21T10:13:08;9.85;;;9.00;;
64903;SDS011;51401;48.882;12.598;2023-08-21T10:15:34;9.52;;;8.63;;
64903;SDS011;51401;48.882;12.598;2023-08-21T10:21:15;9.52;;;8.65;;
64903;SDS011;51401;48.882;12.598;2023-08-21T10:23:48;11.70;;;8.60;;
64903;SDS011;51401;48.882;12.598;2023-08-21T10:26:15;9.35;;;8.30;;
64903;SDS011;51401;48.882;12.598;2023-08-21T10:34:00;9.52;;;8.73;;
64903;SDS011;51401;48.882;12.598;2023-08-21T10:39:26;9.63;;;8.73;;
64903;SDS011;51401;48.882;12.598;2023-08-21T10:50:00;9.02;;;8.23;;
64903;SDS011;51401;48.882;12.598;2023-08-21T10:52:30;9.07;;;8.30;;
64903;SDS011;51401;48.882;12.598;2023-08-21T10:54:59;9.27;;;8.43;;
64903;SDS011;51401;48.882;12.598;2023-08-21T10:57:26;8.82;;;7.93;;
64903;SDS011;51401;48.882;12.598;2023-08-21T11:02:26;8.45;;;7.65;;
64903;SDS011;51401;48.882;12.598;2023-08-21T11:04:56;7.95;;;7.35;;
64903;SDS011;51401;48.882;12.598;2023-08-21T11:07:23;8.57;;;7.78;;
64903;SDS011;51401;48.882;12.598;2023-08-21T11:09:50;8.73;;;7.93;;
64903;SDS011;51401;48.882;12.598;2023-08-21T11:12:16;8.43;;;7.75;;
64903;SDS011;51401;48.882;12.598;2023-08-21T11:14:43;8.55;;;7.82;;
64903;SDS011;51401;48.882;12.598;2023-08-21T11:17:09;8.23;;;7.43;;
64903;SDS011;51401;48.882;12.598;2023-08-21T11:19:35;8.07;;;7.28;;
64903;SDS011;51401;48.882;12.598;2023-08-21T11:22:01;8.90;;;7.70;;
64903;SDS011;51401;48.882;12.598;2023-08-21T11:27:12;8.32;;;7.63;;
64903;SDS011;51401;48.882;12.598;2023-08-21T11:32:21;12.57;;;6.28;;
64903;SDS011;51401;48.882;12.598;2023-08-21T11:34:48;8.50;;;7.80;;
64903;SDS011;51401;48.882;12.598;2023-08-21T11:37:19;8.35;;;7.55;;
64903;SDS011;51401;48.882;12.598;2023-08-21T11:39:50;7.82;;;7.03;;
64903;SDS011;51401;48.882;12.598;2023-08-21T11:42:19;7.50;;;6.90;;
64903;SDS011;51401;48.882;12.598;2023-08-21T11:44:52;8.25;;;7.45;;
64903;SDS011;51401;48.882;12.598;2023-08-21T11:47:20;7.80;;;7.13;;
64903;SDS011;51401;48.882;12.598;2023-08-21T11:49:47;7.82;;;7.20;;
64903;SDS011;51401;48.882;12.598;2023-08-21T11:52:14;7.53;;;6.82;;
64903;SDS011;51401;48.882;12.598;2023-08-21T11:54:46;7.63;;;6.97;;
64903;SDS011;51401;48.882;12.598;2023-08-21T11:57:13;7.40;;;6.70;;
64903;SDS011;51401;48.882;12.598;2023-08-21T11:59:39;6.90;;;6.35;;
64903;SDS011;51401;48.882;12.598;2023-08-21T12:02:24;7.85;;;7.05;;
64903;SDS011;51401;48.882;12.598;2023-08-21T12:05:06;7.65;;;7.00;;
64903;SDS011;51401;48.882;12.598;2023-08-21T12:07:38;6.53;;;5.93;;
64903;SDS011;51401;48.882;12.598;2023-08-21T12:10:03;7.07;;;6.47;;
64903;SDS011;51401;48.882;12.598;2023-08-21T12:12:29;7.05;;;6.35;;
64903;SDS011;51401;48.882;12.598;2023-08-21T12:14:54;7.17;;;6.57;;
64903;SDS011;51401;48.882;12.598;2023-08-21T12:17:20;6.90;;;6.20;;
64903;SDS011;51401;48.882;12.598;2023-08-21T12:19:45;6.87;;;6.23;;
64903;SDS011;51401;48.882;12.598;2023-08-21T12:22:10;7.63;;;6.93;;
64903;SDS011;51401;48.882;12.598;2023-08-21T12:24:37;7.25;;;6.55;;
64903;SDS011;51401;48.882;12.598;2023-08-21T12:27:03;6.68;;;6.13;;
64903;SDS011;51401;48.882;12.598;2023-08-21T12:29:29;8.00;;;6.07;;
64903;SDS011;51401;48.882;12.598;2023-08-21T12:31:54;6.87;;;6.27;;
64903;SDS011;51401;48.882;12.598;2023-08-21T12:34:19;6.90;;;6.30;;
64903;SDS011;51401;48.882;12.598;2023-08-21T12:36:45;6.63;;;5.95;;
64903;SDS011;51401;48.882;12.598;2023-08-21T12:39:10;6.43;;;5.93;;
64903;SDS011;51401;48.882;12.598;2023-08-21T12:41:35;6.20;;;5.70;;
64903;SDS011;51401;48.882;12.598;2023-08-21T12:44:01;6.32;;;5.43;;
64903;SDS011;51401;48.882;12.598;2023-08-21T12:46:28;6.15;;;5.55;;
64903;SDS011;51401;48.882;12.598;2023-08-21T12:48:54;6.93;;;5.65;;
64903;SDS011;51401;48.882;12.598;2023-08-21T12:51:20;6.70;;;6.00;;
64903;SDS011;51401;48.882;12.598;2023-08-21T12:53:46;6.50;;;5.90;;
64903;SDS011;51401;48.882;12.598;2023-08-21T12:56:11;7.00;;;6.30;;
64903;SDS011;51401;48.882;12.598;2023-08-21T12:58:37;6.70;;;6.00;;
64903;SDS011;51401;48.882;12.598;2023-08-21T13:01:02;6.27;;;5.70;;
64903;SDS011;51401;48.882;12.598;2023-08-21T13:03:28;6.68;;;6.07;;
64903;SDS011;51401;48.882;12.598;2023-08-21T13:05:54;6.45;;;5.85;;
64903;SDS011;51401;48.882;12.598;2023-08-21T13:08:19;6.90;;;6.30;;
64903;SDS011;51401;48.882;12.598;2023-08-21T13:10:44;6.93;;;6.17;;
64903;SDS011;51401;48.882;12.598;2023-08-21T13:13:10;7.20;;;6.50;;
64903;SDS011;51401;48.882;12.598;2023-08-21T13:15:35;6.00;;;5.50;;
64903;SDS011;51401;48.882;12.598;2023-08-21T13:18:01;8.07;;;5.93;;
64903;SDS011;51401;48.882;12.598;2023-08-21T13:20:26;5.60;;;5.10;;
64903;SDS011;51401;48.882;12.598;2023-08-21T13:22:52;6.20;;;5.60;;
64903;SDS011;51401;48.882;12.598;2023-08-21T13:25:18;7.38;;;5.68;;
64903;SDS011;51401;48.882;12.598;2023-08-21T13:27:45;5.40;;;5.00;;
64903;SDS011;51401;48.882;12.598;2023-08-21T13:30:11;5.43;;;5.00;;
64903;SDS011;51401;48.882;12.598;2023-08-21T13:32:37;6.00;;;5.35;;
64903;SDS011;51401;48.882;12.598;2023-08-21T13:35:03;5.47;;;4.97;;
64903;SDS011;51401;48.882;12.598;2023-08-21T13:37:33;5.78;;;5.20;;
64903;SDS011;51401;48.882;12.598;2023-08-21T13:39:58;6.10;;;5.37;;
64903;SDS011;51401;48.882;12.598;2023-08-21T13:42:25;5.90;;;5.40;;
64903;SDS011;51401;48.882;12.598;2023-08-21T13:44:50;5.75;;;5.25;;
64903;SDS011;51401;48.882;12.598;2023-08-21T13:47:16;6.00;;;5.50;;
64903;SDS011;51401;48.882;12.598;2023-08-21T13:49:41;5.90;;;5.00;;
64903;SDS011;51401;48.882;12.598;2023-08-21T13:52:07;5.20;;;4.80;;
64903;SDS011;51401;48.882;12.598;2023-08-21T13:54:32;5.30;;;4.90;;
64903;SDS011;51401;48.882;12.598;2023-08-21T13:56:57;6.00;;;5.40;;
64903;SDS011;51401;48.882;12.598;2023-08-21T13:59:25;5.45;;;5.05;;
64903;SDS011;51401;48.882;12.598;2023-08-21T14:01:50;5.57;;;5.03;;
64903;SDS011;51401;48.882;12.598;2023-08-21T14:04:15;5.82;;;5.32;;
64903;SDS011;51401;48.882;12.598;2023-08-21T14:06:41;5.45;;;4.95;;
64903;SDS011;51401;48.882;12.598;2023-08-21T14:09:06;4.63;;;4.23;;
64903;SDS011;51401;48.882;12.598;2023-08-21T14:11:32;5.10;;;4.70;;
64903;SDS011;51401;48.882;12.598;2023-08-21T14:13:57;5.10;;;4.60;;
64903;SDS011;51401;48.882;12.598;2023-08-21T14:16:22;5.17;;;4.50;;
64903;SDS011;51401;48.882;12.598;2023-08-21T14:18:48;6.67;;;5.20;;
64903;SDS011;51401;48.882;12.598;2023-08-21T14:21:13;5.80;;;5.27;;
64903;SDS011;51401;48.882;12.598;2023-08-21T14:23:38;6.10;;;5.13;;
64903;SDS011;51401;48.882;12.598;2023-08-21T14:26:04;5.45;;;4.65;;
64903;SDS011;51401;48.882;12.598;2023-08-21T14:28:29;5.30;;;4.47;;
64903;SDS011;51401;48.882;12.598;2023-08-21T14:30:55;4.63;;;4.13;;
64903;SDS011;51401;48.882;12.598;2023-08-21T14:33:20;4.32;;;3.92;;
64903;SDS011;51401;48.882;12.598;2023-08-21T14:35:46;4.82;;;3.97;;
64903;SDS011;51401;48.882;12.598;2023-08-21T14:38:11;4.18;;;3.78;;
64903;SDS011;51401;48.882;12.598;2023-08-21T14:40:37;4.47;;;4.07;;
64903;SDS011;51401;48.882;12.598;2023-08-21T14:43:02;4.47;;;3.57;;
64903;SDS011;51401;48.882;12.598;2023-08-21T14:45:27;3.65;;;3.35;;
64903;SDS011;51401;48.882;12.598;2023-08-21T14:47:53;3.70;;;3.40;;
64903;SDS011;51401;48.882;12.598;2023-08-21T14:50:18;2.97;;;2.57;;